sensor_id;sensor_type;location;lat;lon;timestamp;P1;durP1;ratioP1;P2;durP2;ratioP2
60582;SDS011;46415;47.536;19.066;2023-06-04T00:01:46;3.55;;;2.60;;
60582;SDS011;46415;47.536;19.066;2023-06-04T00:04:49;4.80;;;2.83;;
60582;SDS011;46415;47.536;19.066;2023-06-04T00:07:52;2.60;;;2.35;;
60582;SDS011;46415;47.536;19.066;2023-06-04T00:10:55;5.47;;;2.72;;
60582;SDS011;46415;47.536;19.066;2023-06-04T00:13:58;2.90;;;2.40;;
60582;SDS011;46415;47.536;19.066;2023-06-04T00:17:01;3.83;;;2.70;;
60582;SDS011;46415;47.536;19.066;2023-06-04T00:20:03;3.03;;;2.30;;
60582;SDS011;46415;47.536;19.066;2023-06-04T00:23:07;3.72;;;2.22;;
60582;SDS011;46415;47.536;19.066;2023-06-04T00:26:09;4.80;;;2.40;;
60582;SDS011;46415;47.536;19.066;2023-06-04T00:29:12;3.22;;;2.42;;
60582;SDS011;46415;47.536;19.066;2023-06-04T00:32:15;3.47;;;2.37;;
60582;SDS011;46415;47.536;19.066;2023-06-04T00:35:18;2.87;;;2.47;;
60582;SDS011;46415;47.536;19.066;2023-06-04T00:38:21;4.80;;;2.20;;
60582;SDS011;46415;47.536;19.066;2023-06-04T00:41:24;3.03;;;2.22;;
60582;SDS011;46415;47.536;19.066;2023-06-04T00:44:28;3.15;;;2.37;;
60582;SDS011;46415;47.536;19.066;2023-06-04T00:47:30;3.03;;;2.70;;
60582;SDS011;46415;47.536;19.066;2023-06-04T00:50:33;5.47;;;2.60;;
60582;SDS011;46415;47.536;19.066;2023-06-04T00:53:38;4.78;;;2.60;;
60582;SDS011;46415;47.536;19.066;2023-06-04T00:56:41;2.12;;;1.92;;
60582;SDS011;46415;47.536;19.066;2023-06-04T00:59:44;2.85;;;2.20;;
60582;SDS011;46415;47.536;19.066;2023-06-04T01:02:47;2.37;;;2.05;;
60582;SDS011;46415;47.536;19.066;2023-06-04T01:09:15;2.75;;;2.30;;
60582;SDS011;46415;47.536;19.066;2023-06-04T01:12:18;2.78;;;2.15;;
60582;SDS011;46415;47.536;19.066;2023-06-04T01:15:21;3.92;;;2.30;;
60582;SDS011;46415;47.536;19.066;2023-06-04T01:18:26;3.15;;;2.35;;
60582;SDS011;46415;47.536;19.066;2023-06-04T01:21:30;3.62;;;2.40;;
60582;SDS011;46415;47.536;19.066;2023-06-04T01:24:41;2.97;;;2.33;;
60582;SDS011;46415;47.536;19.066;2023-06-04T01:27:50;3.75;;;2.05;;
60582;SDS011;46415;47.536;19.066;2023-06-04T01:30:55;3.33;;;2.10;;
60582;SDS011;46415;47.536;19.066;2023-06-04T01:33:59;3.00;;;2.20;;
60582;SDS011;46415;47.536;19.066;2023-06-04T01:37:02;2.30;;;2.10;;
60582;SDS011;46415;47.536;19.066;2023-06-04T01:40:06;4.20;;;2.62;;
60582;SDS011;46415;47.536;19.066;2023-06-04T01:43:10;3.40;;;2.10;;
60582;SDS011;46415;47.536;19.066;2023-06-04T01:46:13;2.83;;;2.30;;
60582;SDS011;46415;47.536;19.066;2023-06-04T01:49:16;2.65;;;1.95;;
60582;SDS011;46415;47.536;19.066;2023-06-04T01:52:19;2.40;;;2.03;;
60582;SDS011;46415;47.536;19.066;2023-06-04T01:55:23;4.90;;;2.12;;
60582;SDS011;46415;47.536;19.066;2023-06-04T01:58:31;4.22;;;2.00;;
60582;SDS011;46415;47.536;19.066;2023-06-04T02:01:34;2.33;;;2.12;;
60582;SDS011;46415;47.536;19.066;2023-06-04T02:04:37;2.75;;;1.90;;
60582;SDS011;46415;47.536;19.066;2023-06-04T02:07:44;3.37;;;2.20;;
60582;SDS011;46415;47.536;19.066;2023-06-04T02:10:48;3.22;;;1.92;;
60582;SDS011;46415;47.536;19.066;2023-06-04T02:13:51;3.22;;;2.15;;
60582;SDS011;46415;47.536;19.066;2023-06-04T02:16:54;3.53;;;2.12;;
60582;SDS011;46415;47.536;19.066;2023-06-04T02:20:00;2.67;;;2.25;;
60582;SDS011;46415;47.536;19.066;2023-06-04T02:23:03;3.87;;;2.30;;
60582;SDS011;46415;47.536;19.066;2023-06-04T02:26:05;3.05;;;2.25;;
60582;SDS011;46415;47.536;19.066;2023-06-04T02:29:08;2.20;;;2.00;;
60582;SDS011;46415;47.536;19.066;2023-06-04T02:32:11;2.83;;;2.28;;
60582;SDS011;46415;47.536;19.066;2023-06-04T02:35:14;3.08;;;2.30;;
60582;SDS011;46415;47.536;19.066;2023-06-04T02:38:17;3.12;;;2.12;;
60582;SDS011;46415;47.536;19.066;2023-06-04T02:41:21;2.30;;;2.10;;
60582;SDS011;46415;47.536;19.066;2023-06-04T02:44:23;2.95;;;2.20;;
60582;SDS011;46415;47.536;19.066;2023-06-04T02:47:29;3.15;;;2.25;;
60582;SDS011;46415;47.536;19.066;2023-06-04T02:50:31;5.40;;;2.20;;
60582;SDS011;46415;47.536;19.066;2023-06-04T02:53:35;2.53;;;1.90;;
60582;SDS011;46415;47.536;19.066;2023-06-04T02:56:37;2.65;;;2.45;;
60582;SDS011;46415;47.536;19.066;2023-06-04T02:59:40;4.10;;;2.40;;
60582;SDS011;46415;47.536;19.066;2023-06-04T03:02:44;3.00;;;2.25;;
60582;SDS011;46415;47.536;19.066;2023-06-04T03:05:50;2.83;;;2.35;;
60582;SDS011;46415;47.536;19.066;2023-06-04T03:08:54;3.87;;;2.30;;
60582;SDS011;46415;47.536;19.066;2023-06-04T03:12:01;2.87;;;2.40;;
60582;SDS011;46415;47.536;19.066;2023-06-04T03:15:04;2.10;;;1.75;;
60582;SDS011;46415;47.536;19.066;2023-06-04T03:18:08;3.40;;;2.10;;
60582;SDS011;46415;47.536;19.066;2023-06-04T03:21:10;2.28;;;2.05;;
60582;SDS011;46415;47.536;19.066;2023-06-04T03:24:14;5.75;;;2.33;;
60582;SDS011;46415;47.536;19.066;2023-06-04T03:27:16;2.58;;;2.22;;
60582;SDS011;46415;47.536;19.066;2023-06-04T03:30:20;2.80;;;1.92;;
60582;SDS011;46415;47.536;19.066;2023-06-04T03:33:23;3.90;;;2.45;;
60582;SDS011;46415;47.536;19.066;2023-06-04T03:36:27;3.28;;;2.30;;
60582;SDS011;46415;47.536;19.066;2023-06-04T03:39:34;4.22;;;2.30;;
60582;SDS011;46415;47.536;19.066;2023-06-04T03:42:38;3.58;;;2.58;;
60582;SDS011;46415;47.536;19.066;2023-06-04T03:45:41;2.40;;;2.20;;
60582;SDS011;46415;47.536;19.066;2023-06-04T03:48:45;4.05;;;2.22;;
60582;SDS011;46415;47.536;19.066;2023-06-04T03:51:49;3.40;;;2.30;;
60582;SDS011;46415;47.536;19.066;2023-06-04T03:54:53;3.05;;;2.53;;
60582;SDS011;46415;47.536;19.066;2023-06-04T03:57:55;2.80;;;2.20;;
60582;SDS011;46415;47.536;19.066;2023-06-04T04:00:58;2.65;;;2.20;;
60582;SDS011;46415;47.536;19.066;2023-06-04T04:04:01;2.85;;;2.37;;
60582;SDS011;46415;47.536;19.066;2023-06-04T04:07:04;5.45;;;2.33;;
60582;SDS011;46415;47.536;19.066;2023-06-04T04:10:07;3.78;;;2.28;;
60582;SDS011;46415;47.536;19.066;2023-06-04T04:13:10;2.35;;;2.05;;
60582;SDS011;46415;47.536;19.066;2023-06-04T04:16:13;2.55;;;2.30;;
60582;SDS011;46415;47.536;19.066;2023-06-04T04:19:16;4.20;;;2.37;;
60582;SDS011;46415;47.536;19.066;2023-06-04T04:22:20;3.15;;;2.10;;
60582;SDS011;46415;47.536;19.066;2023-06-04T04:25:24;3.53;;;2.33;;
60582;SDS011;46415;47.536;19.066;2023-06-04T04:28:27;3.70;;;2.33;;
60582;SDS011;46415;47.536;19.066;2023-06-04T04:31:31;3.03;;;2.42;;
60582;SDS011;46415;47.536;19.066;2023-06-04T04:34:35;2.08;;;1.98;;
60582;SDS011;46415;47.536;19.066;2023-06-04T04:37:40;2.95;;;2.20;;
60582;SDS011;46415;47.536;19.066;2023-06-04T04:40:43;2.65;;;2.28;;
60582;SDS011;46415;47.536;19.066;2023-06-04T04:43:46;5.07;;;2.50;;
60582;SDS011;46415;47.536;19.066;2023-06-04T04:46:50;2.90;;;2.35;;
60582;SDS011;46415;47.536;19.066;2023-06-04T04:49:52;2.25;;;2.05;;
60582;SDS011;46415;47.536;19.066;2023-06-04T04:52:55;2.45;;;2.00;;
60582;SDS011;46415;47.536;19.066;2023-06-04T04:55:58;2.72;;;2.20;;
60582;SDS011;46415;47.536;19.066;2023-06-04T04:59:02;2.92;;;2.35;;
60582;SDS011;46415;47.536;19.066;2023-06-04T05:02:05;2.35;;;1.92;;
60582;SDS011;46415;47.536;19.066;2023-06-04T05:05:09;2.90;;;1.85;;
60582;SDS011;46415;47.536;19.066;2023-06-04T05:08:13;3.40;;;2.33;;
60582;SDS011;46415;47.536;19.066;2023-06-04T05:11:16;3.67;;;2.00;;
60582;SDS011;46415;47.536;19.066;2023-06-04T05:14:19;2.45;;;2.00;;
60582;SDS011;46415;47.536;19.066;2023-06-04T05:17:23;1.80;;;1.70;;
60582;SDS011;46415;47.536;19.066;2023-06-04T05:20:33;2.15;;;1.73;;
60582;SDS011;46415;47.536;19.066;2023-06-04T05:23:41;3.72;;;2.47;;
60582;SDS011;46415;47.536;19.066;2023-06-04T05:26:44;4.00;;;2.05;;
60582;SDS011;46415;47.536;19.066;2023-06-04T05:29:47;2.50;;;1.95;;
60582;SDS011;46415;47.536;19.066;2023-06-04T05:32:50;3.65;;;1.98;;
60582;SDS011;46415;47.536;19.066;2023-06-04T05:35:56;2.60;;;2.30;;
60582;SDS011;46415;47.536;19.066;2023-06-04T05:39:03;2.08;;;1.87;;
60582;SDS011;46415;47.536;19.066;2023-06-04T05:42:07;2.72;;;1.80;;
60582;SDS011;46415;47.536;19.066;2023-06-04T05:45:10;2.10;;;1.90;;
60582;SDS011;46415;47.536;19.066;2023-06-04T05:48:14;2.28;;;1.90;;
60582;SDS011;46415;47.536;19.066;2023-06-04T05:51:17;3.67;;;2.12;;
60582;SDS011;46415;47.536;19.066;2023-06-04T05:54:20;3.00;;;1.83;;
60582;SDS011;46415;47.536;19.066;2023-06-04T05:57:23;2.58;;;1.95;;
60582;SDS011;46415;47.536;19.066;2023-06-04T06:00:26;2.95;;;1.90;;
60582;SDS011;46415;47.536;19.066;2023-06-04T06:03:29;3.33;;;2.28;;
60582;SDS011;46415;47.536;19.066;2023-06-04T06:06:33;3.22;;;2.05;;
60582;SDS011;46415;47.536;19.066;2023-06-04T06:09:36;2.30;;;1.85;;
60582;SDS011;46415;47.536;19.066;2023-06-04T06:12:39;3.15;;;1.90;;
60582;SDS011;46415;47.536;19.066;2023-06-04T06:15:42;2.80;;;1.80;;
60582;SDS011;46415;47.536;19.066;2023-06-04T06:18:46;2.55;;;1.73;;
60582;SDS011;46415;47.536;19.066;2023-06-04T06:21:49;2.70;;;1.70;;
60582;SDS011;46415;47.536;19.066;2023-06-04T06:24:52;2.37;;;1.58;;
60582;SDS011;46415;47.536;19.066;2023-06-04T06:27:55;1.95;;;1.35;;
60582;SDS011;46415;47.536;19.066;2023-06-04T06:30:58;2.47;;;1.50;;
60582;SDS011;46415;47.536;19.066;2023-06-04T06:34:01;3.83;;;1.80;;
60582;SDS011;46415;47.536;19.066;2023-06-04T06:37:04;3.25;;;1.87;;
60582;SDS011;46415;47.536;19.066;2023-06-04T06:40:09;2.15;;;1.33;;
60582;SDS011;46415;47.536;19.066;2023-06-04T06:43:12;1.67;;;1.58;;
60582;SDS011;46415;47.536;19.066;2023-06-04T06:46:15;2.53;;;1.98;;
60582;SDS011;46415;47.536;19.066;2023-06-04T06:49:18;1.62;;;1.50;;
60582;SDS011;46415;47.536;19.066;2023-06-04T06:52:20;3.25;;;1.90;;
60582;SDS011;46415;47.536;19.066;2023-06-04T06:55:23;1.92;;;1.70;;
60582;SDS011;46415;47.536;19.066;2023-06-04T06:58:26;3.80;;;1.70;;
60582;SDS011;46415;47.536;19.066;2023-06-04T07:01:29;2.70;;;1.58;;
60582;SDS011;46415;47.536;19.066;2023-06-04T07:04:32;3.25;;;1.70;;
60582;SDS011;46415;47.536;19.066;2023-06-04T07:07:34;1.83;;;1.60;;
60582;SDS011;46415;47.536;19.066;2023-06-04T07:10:38;2.25;;;1.75;;
60582;SDS011;46415;47.536;19.066;2023-06-04T07:13:40;1.48;;;1.37;;
60582;SDS011;46415;47.536;19.066;2023-06-04T07:16:43;4.15;;;2.00;;
60582;SDS011;46415;47.536;19.066;2023-06-04T07:19:46;1.80;;;1.70;;
60582;SDS011;46415;47.536;19.066;2023-06-04T07:22:48;2.28;;;1.80;;
60582;SDS011;46415;47.536;19.066;2023-06-04T07:25:51;2.03;;;1.73;;
60582;SDS011;46415;47.536;19.066;2023-06-04T07:28:54;2.90;;;1.73;;
60582;SDS011;46415;47.536;19.066;2023-06-04T07:31:57;2.00;;;1.80;;
60582;SDS011;46415;47.536;19.066;2023-06-04T07:35:01;1.90;;;1.67;;
60582;SDS011;46415;47.536;19.066;2023-06-04T07:38:04;3.15;;;1.87;;
60582;SDS011;46415;47.536;19.066;2023-06-04T07:41:07;1.98;;;1.70;;
60582;SDS011;46415;47.536;19.066;2023-06-04T07:44:10;3.83;;;1.85;;
60582;SDS011;46415;47.536;19.066;2023-06-04T07:47:13;1.83;;;1.70;;
60582;SDS011;46415;47.536;19.066;2023-06-04T07:50:16;2.40;;;1.80;;
60582;SDS011;46415;47.536;19.066;2023-06-04T07:53:18;1.70;;;1.60;;
60582;SDS011;46415;47.536;19.066;2023-06-04T07:56:21;3.87;;;2.00;;
60582;SDS011;46415;47.536;19.066;2023-06-04T07:59:24;3.50;;;1.80;;
60582;SDS011;46415;47.536;19.066;2023-06-04T08:02:27;2.45;;;1.73;;
60582;SDS011;46415;47.536;19.066;2023-06-04T08:05:30;3.12;;;1.70;;
60582;SDS011;46415;47.536;19.066;2023-06-04T08:08:33;2.00;;;1.83;;
60582;SDS011;46415;47.536;19.066;2023-06-04T08:11:36;3.15;;;1.90;;
60582;SDS011;46415;47.536;19.066;2023-06-04T08:14:39;2.40;;;1.75;;
60582;SDS011;46415;47.536;19.066;2023-06-04T08:17:42;2.33;;;2.00;;
60582;SDS011;46415;47.536;19.066;2023-06-04T08:20:44;4.30;;;1.92;;
60582;SDS011;46415;47.536;19.066;2023-06-04T08:23:47;3.12;;;2.17;;
60582;SDS011;46415;47.536;19.066;2023-06-04T08:26:50;2.47;;;1.77;;
60582;SDS011;46415;47.536;19.066;2023-06-04T08:29:53;2.95;;;1.98;;
60582;SDS011;46415;47.536;19.066;2023-06-04T08:32:55;4.30;;;2.20;;
60582;SDS011;46415;47.536;19.066;2023-06-04T08:35:58;2.15;;;1.92;;
60582;SDS011;46415;47.536;19.066;2023-06-04T08:39:01;1.70;;;1.60;;
60582;SDS011;46415;47.536;19.066;2023-06-04T08:42:06;2.03;;;1.73;;
60582;SDS011;46415;47.536;19.066;2023-06-04T08:45:13;2.75;;;2.25;;
60582;SDS011;46415;47.536;19.066;2023-06-04T08:48:18;3.30;;;1.80;;
60582;SDS011;46415;47.536;19.066;2023-06-04T08:51:28;2.83;;;2.10;;
60582;SDS011;46415;47.536;19.066;2023-06-04T08:54:35;2.62;;;2.15;;
60582;SDS011;46415;47.536;19.066;2023-06-04T08:57:40;2.83;;;1.73;;
60582;SDS011;46415;47.536;19.066;2023-06-04T09:00:43;1.80;;;1.70;;
60582;SDS011;46415;47.536;19.066;2023-06-04T09:03:46;3.00;;;1.70;;
60582;SDS011;46415;47.536;19.066;2023-06-04T09:06:50;3.95;;;2.05;;
60582;SDS011;46415;47.536;19.066;2023-06-04T09:09:54;3.62;;;1.87;;
60582;SDS011;46415;47.536;19.066;2023-06-04T09:13:13;2.20;;;1.75;;
60582;SDS011;46415;47.536;19.066;2023-06-04T09:16:18;1.85;;;1.73;;
60582;SDS011;46415;47.536;19.066;2023-06-04T09:19:21;3.47;;;1.52;;
60582;SDS011;46415;47.536;19.066;2023-06-04T09:22:34;2.25;;;1.67;;
60582;SDS011;46415;47.536;19.066;2023-06-04T09:25:37;2.30;;;1.50;;
60582;SDS011;46415;47.536;19.066;2023-06-04T09:28:45;3.05;;;1.80;;
60582;SDS011;46415;47.536;19.066;2023-06-04T09:31:58;2.58;;;1.80;;
60582;SDS011;46415;47.536;19.066;2023-06-04T09:35:14;2.40;;;1.65;;
60582;SDS011;46415;47.536;19.066;2023-06-04T09:38:21;3.25;;;1.87;;
60582;SDS011;46415;47.536;19.066;2023-06-04T09:41:25;2.53;;;1.55;;
60582;SDS011;46415;47.536;19.066;2023-06-04T09:44:29;3.22;;;1.60;;
60582;SDS011;46415;47.536;19.066;2023-06-04T09:47:39;3.60;;;1.52;;
60582;SDS011;46415;47.536;19.066;2023-06-04T09:50:43;1.80;;;1.70;;
60582;SDS011;46415;47.536;19.066;2023-06-04T09:53:54;3.95;;;1.80;;
60582;SDS011;46415;47.536;19.066;2023-06-04T09:56:58;3.03;;;1.77;;
60582;SDS011;46415;47.536;19.066;2023-06-04T10:00:01;2.85;;;1.70;;
60582;SDS011;46415;47.536;19.066;2023-06-04T10:03:12;2.67;;;1.55;;
60582;SDS011;46415;47.536;19.066;2023-06-04T10:06:19;2.60;;;1.98;;
60582;SDS011;46415;47.536;19.066;2023-06-04T10:09:25;1.87;;;1.77;;
60582;SDS011;46415;47.536;19.066;2023-06-04T10:12:30;2.40;;;1.90;;
60582;SDS011;46415;47.536;19.066;2023-06-04T10:15:38;2.08;;;1.87;;
60582;SDS011;46415;47.536;19.066;2023-06-04T10:18:41;2.25;;;1.73;;
60582;SDS011;46415;47.536;19.066;2023-06-04T10:21:45;2.33;;;1.62;;
60582;SDS011;46415;47.536;19.066;2023-06-04T10:24:48;1.83;;;1.50;;
60582;SDS011;46415;47.536;19.066;2023-06-04T10:27:51;2.00;;;1.80;;
60582;SDS011;46415;47.536;19.066;2023-06-04T10:30:55;1.70;;;1.60;;
60582;SDS011;46415;47.536;19.066;2023-06-04T10:33:58;2.90;;;1.70;;
60582;SDS011;46415;47.536;19.066;2023-06-04T10:37:01;2.58;;;1.70;;
60582;SDS011;46415;47.536;19.066;2023-06-04T10:40:05;1.98;;;1.77;;
60582;SDS011;46415;47.536;19.066;2023-06-04T10:43:09;2.78;;;1.83;;
60582;SDS011;46415;47.536;19.066;2023-06-04T10:46:14;2.72;;;2.00;;
60582;SDS011;46415;47.536;19.066;2023-06-04T10:49:28;1.77;;;1.60;;
60582;SDS011;46415;47.536;19.066;2023-06-04T10:52:31;1.65;;;1.55;;
60582;SDS011;46415;47.536;19.066;2023-06-04T10:55:42;2.00;;;1.90;;
60582;SDS011;46415;47.536;19.066;2023-06-04T10:58:46;1.98;;;1.77;;
60582;SDS011;46415;47.536;19.066;2023-06-04T11:01:49;2.33;;;1.90;;
60582;SDS011;46415;47.536;19.066;2023-06-04T11:04:59;2.70;;;1.58;;
60582;SDS011;46415;47.536;19.066;2023-06-04T11:08:12;2.22;;;1.87;;
60582;SDS011;46415;47.536;19.066;2023-06-04T11:11:16;4.85;;;1.80;;
60582;SDS011;46415;47.536;19.066;2023-06-04T11:14:19;3.97;;;2.03;;
60582;SDS011;46415;47.536;19.066;2023-06-04T11:17:22;1.87;;;1.60;;
60582;SDS011;46415;47.536;19.066;2023-06-04T11:20:28;2.50;;;1.98;;
60582;SDS011;46415;47.536;19.066;2023-06-04T11:23:32;2.80;;;1.70;;
60582;SDS011;46415;47.536;19.066;2023-06-04T11:26:36;2.30;;;1.92;;
60582;SDS011;46415;47.536;19.066;2023-06-04T11:29:44;3.33;;;2.30;;
60582;SDS011;46415;47.536;19.066;2023-06-04T11:33:02;2.83;;;1.90;;
60582;SDS011;46415;47.536;19.066;2023-06-04T11:36:06;2.05;;;1.83;;
60582;SDS011;46415;47.536;19.066;2023-06-04T11:39:09;1.95;;;1.70;;
60582;SDS011;46415;47.536;19.066;2023-06-04T11:42:12;2.70;;;1.95;;
60582;SDS011;46415;47.536;19.066;2023-06-04T11:45:16;2.83;;;1.60;;
60582;SDS011;46415;47.536;19.066;2023-06-04T11:48:20;1.98;;;1.70;;
60582;SDS011;46415;47.536;19.066;2023-06-04T11:51:23;2.58;;;1.80;;
60582;SDS011;46415;47.536;19.066;2023-06-04T11:54:26;3.30;;;1.80;;
60582;SDS011;46415;47.536;19.066;2023-06-04T11:57:29;2.33;;;1.90;;
60582;SDS011;46415;47.536;19.066;2023-06-04T12:00:32;3.87;;;2.00;;
60582;SDS011;46415;47.536;19.066;2023-06-04T12:06:55;2.10;;;1.67;;
60582;SDS011;46415;47.536;19.066;2023-06-04T12:10:07;5.85;;;2.15;;
60582;SDS011;46415;47.536;19.066;2023-06-04T12:13:19;3.83;;;2.37;;
60582;SDS011;46415;47.536;19.066;2023-06-04T12:16:22;2.28;;;2.08;;
60582;SDS011;46415;47.536;19.066;2023-06-04T12:19:25;4.37;;;1.83;;
60582;SDS011;46415;47.536;19.066;2023-06-04T12:22:29;2.53;;;1.90;;
60582;SDS011;46415;47.536;19.066;2023-06-04T12:25:33;3.03;;;1.90;;
60582;SDS011;46415;47.536;19.066;2023-06-04T12:28:37;3.60;;;2.17;;
60582;SDS011;46415;47.536;19.066;2023-06-04T12:31:43;6.55;;;2.10;;
60582;SDS011;46415;47.536;19.066;2023-06-04T12:34:48;4.20;;;2.20;;
60582;SDS011;46415;47.536;19.066;2023-06-04T12:37:50;2.20;;;1.87;;
60582;SDS011;46415;47.536;19.066;2023-06-04T12:40:53;2.87;;;2.00;;
60582;SDS011;46415;47.536;19.066;2023-06-04T12:43:56;3.40;;;1.85;;
60582;SDS011;46415;47.536;19.066;2023-06-04T12:46:59;2.17;;;1.98;;
60582;SDS011;46415;47.536;19.066;2023-06-04T12:50:02;4.10;;;2.03;;
60582;SDS011;46415;47.536;19.066;2023-06-04T12:53:06;5.32;;;1.83;;
60582;SDS011;46415;47.536;19.066;2023-06-04T12:56:08;2.60;;;2.10;;
60582;SDS011;46415;47.536;19.066;2023-06-04T12:59:12;2.58;;;2.00;;
60582;SDS011;46415;47.536;19.066;2023-06-04T13:02:15;3.85;;;2.00;;
60582;SDS011;46415;47.536;19.066;2023-06-04T13:05:18;2.40;;;1.80;;
60582;SDS011;46415;47.536;19.066;2023-06-04T13:08:21;4.50;;;2.40;;
60582;SDS011;46415;47.536;19.066;2023-06-04T13:11:24;2.85;;;1.73;;
60582;SDS011;46415;47.536;19.066;2023-06-04T13:14:27;2.70;;;2.10;;
60582;SDS011;46415;47.536;19.066;2023-06-04T13:17:32;2.05;;;1.85;;
60582;SDS011;46415;47.536;19.066;2023-06-04T13:20:36;3.30;;;1.83;;
60582;SDS011;46415;47.536;19.066;2023-06-04T13:23:39;2.55;;;2.20;;
60582;SDS011;46415;47.536;19.066;2023-06-04T13:26:52;3.53;;;2.00;;
60582;SDS011;46415;47.536;19.066;2023-06-04T13:29:55;3.80;;;2.17;;
60582;SDS011;46415;47.536;19.066;2023-06-04T13:32:57;4.43;;;2.67;;
60582;SDS011;46415;47.536;19.066;2023-06-04T13:36:03;2.55;;;1.95;;
60582;SDS011;46415;47.536;19.066;2023-06-04T13:39:07;2.60;;;2.20;;
60582;SDS011;46415;47.536;19.066;2023-06-04T13:42:10;2.20;;;2.00;;
60582;SDS011;46415;47.536;19.066;2023-06-04T13:45:12;2.42;;;2.20;;
60582;SDS011;46415;47.536;19.066;2023-06-04T13:48:16;2.30;;;2.10;;
60582;SDS011;46415;47.536;19.066;2023-06-04T13:51:18;2.60;;;2.20;;
60582;SDS011;46415;47.536;19.066;2023-06-04T13:54:21;4.47;;;2.30;;
60582;SDS011;46415;47.536;19.066;2023-06-04T13:57:24;3.00;;;2.12;;
60582;SDS011;46415;47.536;19.066;2023-06-04T14:00:29;4.82;;;2.20;;
60582;SDS011;46415;47.536;19.066;2023-06-04T14:03:33;2.72;;;2.00;;
60582;SDS011;46415;47.536;19.066;2023-06-04T14:06:36;2.53;;;2.05;;
60582;SDS011;46415;47.536;19.066;2023-06-04T14:09:39;2.87;;;2.20;;
60582;SDS011;46415;47.536;19.066;2023-06-04T14:12:42;2.53;;;2.20;;
60582;SDS011;46415;47.536;19.066;2023-06-04T14:15:46;2.72;;;1.87;;
60582;SDS011;46415;47.536;19.066;2023-06-04T14:18:49;4.37;;;2.20;;
60582;SDS011;46415;47.536;19.066;2023-06-04T14:21:52;4.30;;;2.42;;
60582;SDS011;46415;47.536;19.066;2023-06-04T14:24:54;4.82;;;2.03;;
60582;SDS011;46415;47.536;19.066;2023-06-04T14:27:57;3.50;;;2.30;;
60582;SDS011;46415;47.536;19.066;2023-06-04T14:31:00;2.87;;;2.25;;
60582;SDS011;46415;47.536;19.066;2023-06-04T14:34:03;3.05;;;2.30;;
60582;SDS011;46415;47.536;19.066;2023-06-04T14:37:06;2.78;;;2.47;;
60582;SDS011;46415;47.536;19.066;2023-06-04T14:40:09;2.70;;;2.30;;
60582;SDS011;46415;47.536;19.066;2023-06-04T14:43:12;3.25;;;2.58;;
60582;SDS011;46415;47.536;19.066;2023-06-04T14:46:16;4.15;;;2.53;;
60582;SDS011;46415;47.536;19.066;2023-06-04T14:49:19;3.03;;;2.53;;
60582;SDS011;46415;47.536;19.066;2023-06-04T14:52:22;2.45;;;2.22;;
60582;SDS011;46415;47.536;19.066;2023-06-04T14:55:24;3.78;;;2.35;;
60582;SDS011;46415;47.536;19.066;2023-06-04T14:58:27;2.70;;;2.50;;
60582;SDS011;46415;47.536;19.066;2023-06-04T15:01:30;2.42;;;2.00;;
60582;SDS011;46415;47.536;19.066;2023-06-04T15:04:33;2.40;;;2.20;;
60582;SDS011;46415;47.536;19.066;2023-06-04T15:07:35;2.92;;;2.12;;
60582;SDS011;46415;47.536;19.066;2023-06-04T15:10:40;3.33;;;1.90;;
60582;SDS011;46415;47.536;19.066;2023-06-04T15:13:43;3.78;;;2.08;;
60582;SDS011;46415;47.536;19.066;2023-06-04T15:16:46;5.72;;;2.37;;
60582;SDS011;46415;47.536;19.066;2023-06-04T15:19:48;3.72;;;2.22;;
60582;SDS011;46415;47.536;19.066;2023-06-04T15:22:51;2.95;;;2.30;;
60582;SDS011;46415;47.536;19.066;2023-06-04T15:25:54;4.07;;;2.20;;
60582;SDS011;46415;47.536;19.066;2023-06-04T15:28:56;2.42;;;2.22;;
60582;SDS011;46415;47.536;19.066;2023-06-04T15:31:59;3.22;;;2.30;;
60582;SDS011;46415;47.536;19.066;2023-06-04T15:35:03;3.03;;;2.40;;
60582;SDS011;46415;47.536;19.066;2023-06-04T15:38:06;2.90;;;2.15;;
60582;SDS011;46415;47.536;19.066;2023-06-04T15:41:09;3.83;;;2.40;;
60582;SDS011;46415;47.536;19.066;2023-06-04T15:44:12;3.62;;;2.10;;
60582;SDS011;46415;47.536;19.066;2023-06-04T15:47:15;2.58;;;2.37;;
60582;SDS011;46415;47.536;19.066;2023-06-04T15:50:17;2.87;;;2.28;;
60582;SDS011;46415;47.536;19.066;2023-06-04T15:53:21;4.35;;;2.45;;
60582;SDS011;46415;47.536;19.066;2023-06-04T15:56:25;6.10;;;2.75;;
60582;SDS011;46415;47.536;19.066;2023-06-04T15:59:28;2.80;;;2.42;;
60582;SDS011;46415;47.536;19.066;2023-06-04T16:02:30;3.22;;;2.30;;
60582;SDS011;46415;47.536;19.066;2023-06-04T16:05:34;2.85;;;2.58;;
60582;SDS011;46415;47.536;19.066;2023-06-04T16:08:37;4.05;;;2.17;;
60582;SDS011;46415;47.536;19.066;2023-06-04T16:11:40;3.72;;;2.28;;
60582;SDS011;46415;47.536;19.066;2023-06-04T16:14:43;2.50;;;2.28;;
60582;SDS011;46415;47.536;19.066;2023-06-04T16:17:46;3.53;;;2.30;;
60582;SDS011;46415;47.536;19.066;2023-06-04T16:20:50;2.95;;;2.60;;
60582;SDS011;46415;47.536;19.066;2023-06-04T16:23:53;3.22;;;2.33;;
60582;SDS011;46415;47.536;19.066;2023-06-04T16:26:55;2.28;;;2.08;;
60582;SDS011;46415;47.536;19.066;2023-06-04T16:29:58;3.40;;;2.50;;
60582;SDS011;46415;47.536;19.066;2023-06-04T16:33:01;4.07;;;2.30;;
60582;SDS011;46415;47.536;19.066;2023-06-04T16:36:04;3.80;;;2.60;;
60582;SDS011;46415;47.536;19.066;2023-06-04T16:39:08;2.40;;;2.20;;
60582;SDS011;46415;47.536;19.066;2023-06-04T16:42:11;3.95;;;2.55;;
60582;SDS011;46415;47.536;19.066;2023-06-04T16:45:15;5.12;;;2.70;;
60582;SDS011;46415;47.536;19.066;2023-06-04T16:48:18;4.12;;;2.53;;
60582;SDS011;46415;47.536;19.066;2023-06-04T16:51:20;2.90;;;2.60;;
60582;SDS011;46415;47.536;19.066;2023-06-04T16:54:23;3.30;;;2.40;;
60582;SDS011;46415;47.536;19.066;2023-06-04T16:57:26;3.03;;;2.70;;
60582;SDS011;46415;47.536;19.066;2023-06-04T17:00:29;3.25;;;2.55;;
60582;SDS011;46415;47.536;19.066;2023-06-04T17:03:33;3.45;;;2.85;;
60582;SDS011;46415;47.536;19.066;2023-06-04T17:06:36;5.43;;;2.70;;
60582;SDS011;46415;47.536;19.066;2023-06-04T17:09:38;2.55;;;2.35;;
60582;SDS011;46415;47.536;19.066;2023-06-04T17:12:42;3.80;;;2.80;;
60582;SDS011;46415;47.536;19.066;2023-06-04T17:15:44;2.72;;;2.30;;
60582;SDS011;46415;47.536;19.066;2023-06-04T17:18:47;2.37;;;2.20;;
60582;SDS011;46415;47.536;19.066;2023-06-04T17:21:50;3.90;;;2.42;;
60582;SDS011;46415;47.536;19.066;2023-06-04T17:24:53;2.92;;;2.60;;
60582;SDS011;46415;47.536;19.066;2023-06-04T17:27:55;2.95;;;2.53;;
60582;SDS011;46415;47.536;19.066;2023-06-04T17:30:58;4.80;;;2.70;;
60582;SDS011;46415;47.536;19.066;2023-06-04T17:34:01;5.12;;;2.67;;
60582;SDS011;46415;47.536;19.066;2023-06-04T17:37:05;4.30;;;2.83;;
60582;SDS011;46415;47.536;19.066;2023-06-04T17:40:08;2.72;;;2.53;;
60582;SDS011;46415;47.536;19.066;2023-06-04T17:43:11;3.33;;;2.30;;
60582;SDS011;46415;47.536;19.066;2023-06-04T17:46:14;3.30;;;2.78;;
60582;SDS011;46415;47.536;19.066;2023-06-04T17:49:17;5.28;;;2.50;;
60582;SDS011;46415;47.536;19.066;2023-06-04T17:52:20;3.30;;;2.50;;
60582;SDS011;46415;47.536;19.066;2023-06-04T17:55:24;3.65;;;2.65;;
60582;SDS011;46415;47.536;19.066;2023-06-04T17:58:27;3.90;;;2.95;;
60582;SDS011;46415;47.536;19.066;2023-06-04T18:01:30;3.60;;;2.62;;
60582;SDS011;46415;47.536;19.066;2023-06-04T18:04:34;3.45;;;2.87;;
60582;SDS011;46415;47.536;19.066;2023-06-04T18:07:37;3.40;;;2.83;;
60582;SDS011;46415;47.536;19.066;2023-06-04T18:10:41;4.60;;;2.85;;
60582;SDS011;46415;47.536;19.066;2023-06-04T18:13:44;4.93;;;2.72;;
60582;SDS011;46415;47.536;19.066;2023-06-04T18:16:47;3.50;;;3.00;;